sensor_id;sensor_type;location;lat;lon;timestamp;pressure;altitude;pressure_sealevel;temperature;humidity
72892;BME280;61032;50.782;6.818;2023-05-09T00:00:24;100751.50;;;16.38;79.69
72892;BME280;61032;50.782;6.818;2023-05-09T00:01:27;100748.00;;;16.41;79.74
72892;BME280;61032;50.782;6.818;2023-05-09T00:02:31;100745.22;;;16.41;79.56
72892;BME280;61032;50.782;6.818;2023-05-09T00:03:33;100739.28;;;16.43;79.55
72892;BME280;61032;50.782;6.818;2023-05-09T00:04:34;100744.03;;;16.42;79.55
72892;BME280;61032;50.782;6.818;2023-05-09T00:05:34;100744.03;;;16.42;79.42
72892;BME280;61032;50.782;6.818;2023-05-09T00:06:34;100741.25;;;16.42;79.50
72892;BME280;61032;50.782;6.818;2023-05-09T00:07:36;100749.53;;;16.39;79.71
72892;BME280;61032;50.782;6.818;2023-05-09T00:08:37;100740.84;;;16.40;79.80
72892;BME280;61032;50.782;6.818;2023-05-09T00:09:37;100740.06;;;16.43;79.72
72892;BME280;61032;50.782;6.818;2023-05-09T00:10:38;100740.53;;;16.45;79.62
72892;BME280;61032;50.782;6.818;2023-05-09T00:11:38;100740.53;;;16.45;79.38
72892;BME280;61032;50.782;6.818;2023-05-09T00:12:40;100738.09;;;16.44;79.43
72892;BME280;61032;50.782;6.818;2023-05-09T00:13:42;100733.34;;;16.44;79.48
72892;BME280;61032;50.782;6.818;2023-05-09T00:14:43;100742.50;;;16.45;79.30
72892;BME280;61032;50.782;6.818;2023-05-09T00:15:44;100732.50;;;16.40;79.09
72892;BME280;61032;50.782;6.818;2023-05-09T00:16:45;100742.00;;;16.39;79.61
72892;BME280;61032;50.782;6.818;2023-05-09T00:17:46;100736.44;;;16.39;79.41
72892;BME280;61032;50.782;6.818;2023-05-09T00:18:47;100737.25;;;16.40;79.36
72892;BME280;61032;50.782;6.818;2023-05-09T00:19:48;100733.22;;;16.37;79.43
72892;BME280;61032;50.782;6.818;2023-05-09T00:20:49;100741.75;;;16.29;79.60
72892;BME280;61032;50.782;6.818;2023-05-09T00:21:50;100733.69;;;16.24;79.67
72892;BME280;61032;50.782;6.818;2023-05-09T00:22:51;100736.84;;;16.22;80.07
72892;BME280;61032;50.782;6.818;2023-05-09T00:23:51;100740.06;;;16.24;79.72
72892;BME280;61032;50.782;6.818;2023-05-09T00:24:52;100735.03;;;16.30;79.81
72892;BME280;61032;50.782;6.818;2023-05-09T00:25:52;100738.16;;;16.28;79.64
72892;BME280;61032;50.782;6.818;2023-05-09T00:26:53;100724.13;;;16.21;79.53
72892;BME280;61032;50.782;6.818;2023-05-09T00:27:53;100728.09;;;16.20;79.77
72892;BME280;61032;50.782;6.818;2023-05-09T00:28:53;100732.03;;;16.19;79.81
72892;BME280;61032;50.782;6.818;2023-05-09T00:29:54;100728.97;;;16.24;80.13
72892;BME280;61032;50.782;6.818;2023-05-09T00:30:54;100728.50;;;16.22;79.88
72892;BME280;61032;50.782;6.818;2023-05-09T00:31:55;100718.59;;;16.21;79.32
72892;BME280;61032;50.782;6.818;2023-05-09T00:32:55;100721.81;;;16.23;79.81
72892;BME280;61032;50.782;6.818;2023-05-09T00:33:56;100724.13;;;16.21;79.70
72892;BME280;61032;50.782;6.818;2023-05-09T00:34:56;100720.19;;;16.22;79.71
72892;BME280;61032;50.782;6.818;2023-05-09T00:35:57;100718.53;;;16.18;79.77
72892;BME280;61032;50.782;6.818;2023-05-09T00:36:58;100710.94;;;16.14;80.07
72892;BME280;61032;50.782;6.818;2023-05-09T00:37:58;100714.88;;;16.13;80.02
72892;BME280;61032;50.782;6.818;2023-05-09T00:38:59;100711.72;;;16.15;80.34
72892;BME280;61032;50.782;6.818;2023-05-09T00:39:59;100711.81;;;16.19;80.13
72892;BME280;61032;50.782;6.818;2023-05-09T00:41:00;100714.22;;;16.20;79.90
72892;BME280;61032;50.782;6.818;2023-05-09T00:42:00;100710.47;;;16.12;80.40
72892;BME280;61032;50.782;6.818;2023-05-09T00:43:02;100712.00;;;16.10;80.46
72892;BME280;61032;50.782;6.818;2023-05-09T00:44:04;100713.16;;;16.09;80.51
72892;BME280;61032;50.782;6.818;2023-05-09T00:45:05;100708.44;;;16.09;80.57
72892;BME280;61032;50.782;6.818;2023-05-09T00:46:06;100707.63;;;16.09;80.39
72892;BME280;61032;50.782;6.818;2023-05-09T00:47:06;100710.84;;;16.11;80.25
72892;BME280;61032;50.782;6.818;2023-05-09T00:48:07;100708.06;;;16.11;80.64
72892;BME280;61032;50.782;6.818;2023-05-09T00:49:07;100709.69;;;16.12;80.83
72892;BME280;61032;50.782;6.818;2023-05-09T00:50:08;100711.28;;;16.13;80.55
72892;BME280;61032;50.782;6.818;2023-05-09T00:51:09;100709.41;;;16.17;80.19
72892;BME280;61032;50.782;6.818;2023-05-09T00:52:09;100714.66;;;16.22;80.24
72892;BME280;61032;50.782;6.818;2023-05-09T00:53:10;100713.91;;;16.25;80.00
72892;BME280;61032;50.782;6.818;2023-05-09T00:54:10;100709.91;;;16.23;79.81
72892;BME280;61032;50.782;6.818;2023-05-09T00:55:12;100713.84;;;16.22;79.51
72892;BME280;61032;50.782;6.818;2023-05-09T00:56:13;100711.44;;;16.20;79.82
72892;BME280;61032;50.782;6.818;2023-05-09T00:57:14;100703.50;;;16.19;79.95
72892;BME280;61032;50.782;6.818;2023-05-09T00:58:15;100712.97;;;16.18;79.89
72892;BME280;61032;50.782;6.818;2023-05-09T00:59:16;100708.97;;;16.15;80.02
72892;BME280;61032;50.782;6.818;2023-05-09T01:00:17;100705.03;;;16.16;79.96
72892;BME280;61032;50.782;6.818;2023-05-09T01:01:18;100697.13;;;16.18;80.19
72892;BME280;61032;50.782;6.818;2023-05-09T01:02:18;100694.38;;;16.18;80.45
72892;BME280;61032;50.782;6.818;2023-05-09T01:03:19;100690.78;;;16.18;80.39
72892;BME280;61032;50.782;6.818;2023-05-09T01:04:20;100695.16;;;16.19;80.22
72892;BME280;61032;50.782;6.818;2023-05-09T01:05:22;100689.19;;;16.17;80.15
72892;BME280;61032;50.782;6.818;2023-05-09T01:06:31;100694.81;;;16.20;80.18
72892;BME280;61032;50.782;6.818;2023-05-09T01:07:49;100694.06;;;16.23;79.89
72892;BME280;61032;50.782;6.818;2023-05-09T01:08:57;100694.84;;;16.24;79.89
72892;BME280;61032;50.782;6.818;2023-05-09T01:10:22;100693.91;;;16.16;79.96
72892;BME280;61032;50.782;6.818;2023-05-09T01:11:39;100693.84;;;16.12;79.75
72892;BME280;61032;50.782;6.818;2023-05-09T01:12:51;100689.81;;;16.10;80.24
72892;BME280;61032;50.782;6.818;2023-05-09T01:15:29;100690.63;;;16.10;80.38
72892;BME280;61032;50.782;6.818;2023-05-09T01:16:40;100683.81;;;16.08;80.56
72892;BME280;61032;50.782;6.818;2023-05-09T01:19:11;100685.16;;;16.14;80.54
72892;BME280;61032;50.782;6.818;2023-05-09T01:20:34;100675.22;;;16.13;80.35
72892;BME280;61032;50.782;6.818;2023-05-09T01:21:39;100677.56;;;16.11;80.18
72892;BME280;61032;50.782;6.818;2023-05-09T01:22:47;100676.84;;;16.14;80.85
72892;BME280;61032;50.782;6.818;2023-05-09T01:25:35;100668.72;;;16.05;80.54
72892;BME280;61032;50.782;6.818;2023-05-09T01:29:33;100676.31;;;16.08;80.92
72892;BME280;61032;50.782;6.818;2023-05-09T01:30:36;100661.56;;;16.04;80.66
72892;BME280;61032;50.782;6.818;2023-05-09T01:31:43;100676.22;;;16.05;80.90
72892;BME280;61032;50.782;6.818;2023-05-09T01:32:45;100674.34;;;16.09;80.88
72892;BME280;61032;50.782;6.818;2023-05-09T01:33:53;100672.72;;;16.08;80.53
72892;BME280;61032;50.782;6.818;2023-05-09T01:34:58;100673.09;;;16.06;80.31
72892;BME280;61032;50.782;6.818;2023-05-09T01:36:03;100663.59;;;16.07;80.34
72892;BME280;61032;50.782;6.818;2023-05-09T01:37:06;100657.63;;;16.05;80.50
72892;BME280;61032;50.782;6.818;2023-05-09T01:38:10;100665.94;;;16.05;80.23
72892;BME280;61032;50.782;6.818;2023-05-09T01:39:12;100664.69;;;16.03;80.79
72892;BME280;61032;50.782;6.818;2023-05-09T01:40:14;100664.25;;;16.01;80.74
72892;BME280;61032;50.782;6.818;2023-05-09T01:41:16;100660.16;;;15.95;80.80
72892;BME280;61032;50.782;6.818;2023-05-09T01:42:20;100666.88;;;15.94;81.09
72892;BME280;61032;50.782;6.818;2023-05-09T01:43:22;100669.28;;;15.95;81.05
72892;BME280;61032;50.782;6.818;2023-05-09T01:44:25;100669.28;;;15.95;80.78
72892;BME280;61032;50.782;6.818;2023-05-09T01:45:29;100671.63;;;15.93;80.94
72892;BME280;61032;50.782;6.818;2023-05-09T01:46:31;100679.59;;;15.95;80.62
72892;BME280;61032;50.782;6.818;2023-05-09T01:47:32;100679.94;;;15.93;80.80
72892;BME280;61032;50.782;6.818;2023-05-09T01:48:34;100671.25;;;15.95;80.91
72892;BME280;61032;50.782;6.818;2023-05-09T01:49:37;100677.53;;;15.92;81.19
72892;BME280;61032;50.782;6.818;2023-05-09T01:50:39;100666.78;;;15.90;80.98
72892;BME280;61032;50.782;6.818;2023-05-09T01:51:42;100668.69;;;15.86;81.11
72892;BME280;61032;50.782;6.818;2023-05-09T01:52:46;100671.81;;;15.85;81.07
72892;BME280;61032;50.782;6.818;2023-05-09T01:53:47;100662.25;;;15.82;81.49
72892;BME280;61032;50.782;6.818;2023-05-09T01:54:49;100671.00;;;15.84;81.68
72892;BME280;61032;50.782;6.818;2023-05-09T01:55:50;100667.72;;;15.78;81.51
72892;BME280;61032;50.782;6.818;2023-05-09T01:56:53;100669.41;;;15.83;81.87
72892;BME280;61032;50.782;6.818;2023-05-09T01:57:55;100663.50;;;15.85;81.81
72892;BME280;61032;50.782;6.818;2023-05-09T01:58:57;100668.53;;;15.79;81.42
72892;BME280;61032;50.782;6.818;2023-05-09T02:00:00;100668.09;;;15.77;82.05
72892;BME280;61032;50.782;6.818;2023-05-09T02:01:02;100669.31;;;15.79;81.72
72892;BME280;61032;50.782;6.818;2023-05-09T02:02:03;100673.34;;;15.82;82.13
72892;BME280;61032;50.782;6.818;2023-05-09T02:03:04;100670.19;;;15.84;81.82
72892;BME280;61032;50.782;6.818;2023-05-09T02:04:05;100662.69;;;15.84;81.37
72892;BME280;61032;50.782;6.818;2023-05-09T02:05:08;100664.28;;;15.85;81.53
72892;BME280;61032;50.782;6.818;2023-05-09T02:06:09;100663.75;;;15.79;81.81
72892;BME280;61032;50.782;6.818;2023-05-09T02:07:11;100667.44;;;15.84;81.85
72892;BME280;61032;50.782;6.818;2023-05-09T02:08:13;100655.97;;;15.85;81.91
72892;BME280;61032;50.782;6.818;2023-05-09T02:09:14;100658.47;;;15.90;81.84
72892;BME280;61032;50.782;6.818;2023-05-09T02:10:15;100654.63;;;15.95;81.77
72892;BME280;61032;50.782;6.818;2023-05-09T02:11:16;100652.66;;;15.95;81.60
72892;BME280;61032;50.782;6.818;2023-05-09T02:12:16;100654.63;;;15.95;81.54
72892;BME280;61032;50.782;6.818;2023-05-09T02:13:16;100651.94;;;15.98;81.26
72892;BME280;61032;50.782;6.818;2023-05-09T02:14:17;100653.94;;;16.01;81.25
72892;BME280;61032;50.782;6.818;2023-05-09T02:15:17;100653.09;;;15.97;81.04
72892;BME280;61032;50.782;6.818;2023-05-09T02:16:18;100652.94;;;15.90;81.54
72892;BME280;61032;50.782;6.818;2023-05-09T02:17:18;100650.97;;;15.91;81.54
72892;BME280;61032;50.782;6.818;2023-05-09T02:18:20;100656.16;;;15.92;81.55
72892;BME280;61032;50.782;6.818;2023-05-09T02:19:20;100654.63;;;15.95;81.53
72892;BME280;61032;50.782;6.818;2023-05-09T02:20:21;100652.28;;;15.97;81.47
72892;BME280;61032;50.782;6.818;2023-05-09T02:21:21;100653.00;;;15.94;81.03
72892;BME280;61032;50.782;6.818;2023-05-09T02:22:21;100653.53;;;15.99;81.08
72892;BME280;61032;50.782;6.818;2023-05-09T02:23:22;100649.16;;;15.98;81.11
72892;BME280;61032;50.782;6.818;2023-05-09T02:24:23;100653.00;;;15.94;81.42
72892;BME280;61032;50.782;6.818;2023-05-09T02:25:23;100656.94;;;15.93;81.32
72892;BME280;61032;50.782;6.818;2023-05-09T02:26:24;100660.16;;;15.95;81.19
72892;BME280;61032;50.782;6.818;2023-05-09T02:27:25;100660.88;;;15.92;81.17
72892;BME280;61032;50.782;6.818;2023-05-09T02:28:27;100654.47;;;15.88;81.51
72892;BME280;61032;50.782;6.818;2023-05-09T02:29:32;100652.94;;;15.90;81.58
72892;BME280;61032;50.782;6.818;2023-05-09T02:30:41;100652.94;;;15.90;81.67
72892;BME280;61032;50.782;6.818;2023-05-09T02:31:42;100653.28;;;15.89;81.74
72892;BME280;61032;50.782;6.818;2023-05-09T02:32:46;100655.69;;;15.90;81.66
72892;BME280;61032;50.782;6.818;2023-05-09T02:33:48;100647.47;;;15.94;81.70
72892;BME280;61032;50.782;6.818;2023-05-09T02:34:51;100645.94;;;15.96;81.42
72892;BME280;61032;50.782;6.818;2023-05-09T02:35:54;100653.91;;;15.98;81.70
72892;BME280;61032;50.782;6.818;2023-05-09T02:36:55;100641.66;;;15.99;81.46
72892;BME280;61032;50.782;6.818;2023-05-09T02:37:57;100640.53;;;16.03;81.08
72892;BME280;61032;50.782;6.818;2023-05-09T02:38:59;100644.47;;;16.02;81.17
72892;BME280;61032;50.782;6.818;2023-05-09T02:40:00;100647.25;;;16.02;81.11
72892;BME280;61032;50.782;6.818;2023-05-09T02:41:00;100640.16;;;16.05;81.17
72892;BME280;61032;50.782;6.818;2023-05-09T02:42:11;100639.72;;;16.03;81.15
72892;BME280;61032;50.782;6.818;2023-05-09T02:43:12;100641.25;;;16.00;81.05
72892;BME280;61032;50.782;6.818;2023-05-09T02:44:14;100628.19;;;16.01;81.14
72892;BME280;61032;50.782;6.818;2023-05-09T02:45:14;100636.47;;;15.97;81.55
72892;BME280;61032;50.782;6.818;2023-05-09T02:46:14;100626.44;;;15.93;81.62
72892;BME280;61032;50.782;6.818;2023-05-09T02:47:15;100629.13;;;15.89;81.99
72892;BME280;61032;50.782;6.818;2023-05-09T02:48:15;100632.91;;;15.81;82.19
72892;BME280;61032;50.782;6.818;2023-05-09T02:49:15;100627.72;;;15.79;82.53
72892;BME280;61032;50.782;6.818;2023-05-09T02:50:16;100626.19;;;15.82;82.55
72892;BME280;61032;50.782;6.818;2023-05-09T02:51:17;100633.88;;;15.89;82.59
72892;BME280;61032;50.782;6.818;2023-05-09T02:52:17;100612.59;;;15.93;82.29
72892;BME280;61032;50.782;6.818;2023-05-09T02:53:17;100622.94;;;15.96;82.14
72892;BME280;61032;50.782;6.818;2023-05-09T02:54:18;100622.94;;;15.96;82.17
72892;BME280;61032;50.782;6.818;2023-05-09T02:55:18;100624.41;;;15.90;82.01
72892;BME280;61032;50.782;6.818;2023-05-09T02:56:18;100623.50;;;15.86;82.36
72892;BME280;61032;50.782;6.818;2023-05-09T02:57:18;100624.31;;;15.86;82.41
72892;BME280;61032;50.782;6.818;2023-05-09T02:58:20;100617.25;;;15.89;82.66
72892;BME280;61032;50.782;6.818;2023-05-09T02:59:20;100615.28;;;15.89;82.47
72892;BME280;61032;50.782;6.818;2023-05-09T03:00:21;100616.28;;;15.81;82.22
72892;BME280;61032;50.782;6.818;2023-05-09T03:01:22;100620.16;;;15.76;82.94
72892;BME280;61032;50.782;6.818;2023-05-09T03:02:23;100611.91;;;15.80;83.09
72892;BME280;61032;50.782;6.818;2023-05-09T03:03:23;100619.84;;;15.81;83.02
72892;BME280;61032;50.782;6.818;2023-05-09T03:04:24;100610.31;;;15.79;82.84
72892;BME280;61032;50.782;6.818;2023-05-09T03:05:24;100616.63;;;15.79;82.89
72892;BME280;61032;50.782;6.818;2023-05-09T03:06:25;100612.34;;;15.82;82.80
72892;BME280;61032;50.782;6.818;2023-05-09T03:07:25;100608.25;;;15.76;82.78
72892;BME280;61032;50.782;6.818;2023-05-09T03:08:25;100611.41;;;15.74;83.09
72892;BME280;61032;50.782;6.818;2023-05-09T03:09:26;100622.41;;;15.71;83.14
72892;BME280;61032;50.782;6.818;2023-05-09T03:10:26;100616.06;;;15.70;82.95
72892;BME280;61032;50.782;6.818;2023-05-09T03:11:26;100611.31;;;15.71;83.26
72892;BME280;61032;50.782;6.818;2023-05-09T03:12:27;100610.88;;;15.69;83.54
72892;BME280;61032;50.782;6.818;2023-05-09T03:13:27;100613.19;;;15.67;83.53
72892;BME280;61032;50.782;6.818;2023-05-09T03:14:28;100609.25;;;15.68;83.41
72892;BME280;61032;50.782;6.818;2023-05-09T03:15:28;100614.44;;;15.69;83.32
72892;BME280;61032;50.782;6.818;2023-05-09T03:16:29;100615.25;;;15.70;83.45
72892;BME280;61032;50.782;6.818;2023-05-09T03:17:30;100613.72;;;15.72;83.47
72892;BME280;61032;50.782;6.818;2023-05-09T03:18:30;100608.09;;;15.69;83.57
72892;BME280;61032;50.782;6.818;2023-05-09T03:19:31;100608.09;;;15.69;83.54
72892;BME280;61032;50.782;6.818;2023-05-09T03:20:31;100601.75;;;15.68;83.67
72892;BME280;61032;50.782;6.818;2023-05-09T03:21:32;100603.72;;;15.68;83.76
72892;BME280;61032;50.782;6.818;2023-05-09T03:22:32;100603.28;;;15.66;83.71
72892;BME280;61032;50.782;6.818;2023-05-09T03:23:33;100604.06;;;15.66;83.49
72892;BME280;61032;50.782;6.818;2023-05-09T03:24:33;100612.84;;;15.68;83.64
72892;BME280;61032;50.782;6.818;2023-05-09T03:25:33;100603.34;;;15.69;83.21
72892;BME280;61032;50.782;6.818;2023-05-09T03:26:34;100607.28;;;15.68;83.35
72892;BME280;61032;50.782;6.818;2023-05-09T03:27:34;100610.06;;;15.68;83.48
72892;BME280;61032;50.782;6.818;2023-05-09T03:28:35;100604.97;;;15.70;83.21
72892;BME280;61032;50.782;6.818;2023-05-09T03:29:35;100610.16;;;15.72;83.36
72892;BME280;61032;50.782;6.818;2023-05-09T03:30:36;100610.50;;;15.70;82.98
72892;BME280;61032;50.782;6.818;2023-05-09T03:31:36;100610.06;;;15.68;83.24
72892;BME280;61032;50.782;6.818;2023-05-09T03:32:36;100612.47;;;15.70;83.31
72892;BME280;61032;50.782;6.818;2023-05-09T03:33:38;100608.91;;;15.69;83.28
72892;BME280;61032;50.782;6.818;2023-05-09T03:34:38;100602.47;;;15.65;83.65
72892;BME280;61032;50.782;6.818;2023-05-09T03:35:38;100604.06;;;15.66;83.61
72892;BME280;61032;50.782;6.818;2023-05-09T03:36:43;100603.34;;;15.69;84.04
72892;BME280;61032;50.782;6.818;2023-05-09T03:37:43;100604.97;;;15.70;83.76
72892;BME280;61032;50.782;6.818;2023-05-09T03:38:44;100599.41;;;15.70;83.63
72892;BME280;61032;50.782;6.818;2023-05-09T03:39:44;100597.91;;;15.73;83.54
72892;BME280;61032;50.782;6.818;2023-05-09T03:40:45;100598.25;;;15.71;83.44
72892;BME280;61032;50.782;6.818;2023-05-09T03:41:45;100596.66;;;15.70;83.45
72892;BME280;61032;50.782;6.818;2023-05-09T03:42:46;100596.28;;;15.72;83.40
72892;BME280;61032;50.782;6.818;2023-05-09T03:43:46;100588.78;;;15.72;83.54
72892;BME280;61032;50.782;6.818;2023-05-09T03:44:47;100582.06;;;15.73;83.47
72892;BME280;61032;50.782;6.818;2023-05-09T03:45:47;100583.75;;;15.78;83.28
72892;BME280;61032;50.782;6.818;2023-05-09T03:46:48;100581.41;;;15.80;83.00
72892;BME280;61032;50.782;6.818;2023-05-09T03:47:49;100579.66;;;15.72;83.15
72892;BME280;61032;50.782;6.818;2023-05-09T03:48:49;100583.59;;;15.71;83.28
72892;BME280;61032;50.782;6.818;2023-05-09T03:49:49;100578.50;;;15.73;83.42
72892;BME280;61032;50.782;6.818;2023-05-09T03:50:50;100580.53;;;15.76;83.17
72892;BME280;61032;50.782;6.818;2023-05-09T03:51:50;100574.28;;;15.79;82.97
72892;BME280;61032;50.782;6.818;2023-05-09T03:52:51;100580.97;;;15.78;83.12
72892;BME280;61032;50.782;6.818;2023-05-09T03:53:51;100575.44;;;15.78;82.99
72892;BME280;61032;50.782;6.818;2023-05-09T03:54:51;100576.97;;;15.75;82.99
72892;BME280;61032;50.782;6.818;2023-05-09T03:55:52;100577.31;;;15.74;82.83
72892;BME280;61032;50.782;6.818;2023-05-09T03:56:52;100574.13;;;15.72;83.03
72892;BME280;61032;50.782;6.818;2023-05-09T03:57:53;100574.75;;;15.65;83.07
72892;BME280;61032;50.782;6.818;2023-05-09T03:58:53;100584.41;;;15.71;83.08
72892;BME280;61032;50.782;6.818;2023-05-09T03:59:54;100573.31;;;15.71;83.05
72892;BME280;61032;50.782;6.818;2023-05-09T04:00:54;100576.88;;;15.72;82.89
72892;BME280;61032;50.782;6.818;2023-05-09T04:01:55;100567.75;;;15.71;83.13
72892;BME280;61032;50.782;6.818;2023-05-09T04:02:55;100571.69;;;15.70;83.38
72892;BME280;61032;50.782;6.818;2023-05-09T04:03:56;100578.69;;;15.64;83.49
72892;BME280;61032;50.782;6.818;2023-05-09T04:04:59;100582.63;;;15.63;83.77
72892;BME280;61032;50.782;6.818;2023-05-09T04:06:00;100570.72;;;15.63;83.59
72892;BME280;61032;50.782;6.818;2023-05-09T04:07:00;100574.31;;;15.63;83.68
72892;BME280;61032;50.782;6.818;2023-05-09T04:08:02;100573.06;;;15.61;83.57
72892;BME280;61032;50.782;6.818;2023-05-09T04:09:02;100572.69;;;15.62;83.85
72892;BME280;61032;50.782;6.818;2023-05-09T04:10:03;100575.09;;;15.64;83.75
72892;BME280;61032;50.782;6.818;2023-05-09T04:11:03;100565.72;;;15.68;83.78
72892;BME280;61032;50.782;6.818;2023-05-09T04:12:05;100568.94;;;15.70;83.53
72892;BME280;61032;50.782;6.818;2023-05-09T04:13:05;100569.66;;;15.67;83.27
72892;BME280;61032;50.782;6.818;2023-05-09T04:14:05;100568.47;;;15.68;83.40
72892;BME280;61032;50.782;6.818;2023-05-09T04:15:06;100570.81;;;15.66;83.37
72892;BME280;61032;50.782;6.818;2023-05-09T04:16:07;100565.00;;;15.71;83.41
72892;BME280;61032;50.782;6.818;2023-05-09T04:17:07;100564.91;;;15.68;83.31
72892;BME280;61032;50.782;6.818;2023-05-09T04:18:08;100565.19;;;15.63;83.48
72892;BME280;61032;50.782;6.818;2023-05-09T04:19:08;100562.06;;;15.64;83.85
72892;BME280;61032;50.782;6.818;2023-05-09T04:20:09;100554.53;;;15.65;83.65
72892;BME280;61032;50.782;6.818;2023-05-09T04:21:10;100550.16;;;15.64;83.64
72892;BME280;61032;50.782;6.818;2023-05-09T04:22:10;100554.03;;;15.59;83.97
72892;BME280;61032;50.782;6.818;2023-05-09T04:23:10;100557.19;;;15.58;84.05
72892;BME280;61032;50.782;6.818;2023-05-09T04:24:10;100552.81;;;15.57;83.66
72892;BME280;61032;50.782;6.818;2023-05-09T04:25:11;100549.91;;;15.53;83.97
72892;BME280;61032;50.782;6.818;2023-05-09T04:26:13;100554.66;;;15.53;84.13
72892;BME280;61032;50.782;6.818;2023-05-09T04:27:14;100556.25;;;15.54;84.55
72892;BME280;61032;50.782;6.818;2023-05-09T04:28:15;100549.91;;;15.53;84.44
72892;BME280;61032;50.782;6.818;2023-05-09T04:29:16;100545.91;;;15.51;84.32
72892;BME280;61032;50.782;6.818;2023-05-09T04:30:16;100547.50;;;15.52;84.30
72892;BME280;61032;50.782;6.818;2023-05-09T04:31:17;100548.31;;;15.52;84.41
72892;BME280;61032;50.782;6.818;2023-05-09T04:32:18;100550.34;;;15.55;84.44
72892;BME280;61032;50.782;6.818;2023-05-09T04:33:19;100544.50;;;15.57;84.34
72892;BME280;61032;50.782;6.818;2023-05-09T04:34:20;100544.13;;;15.58;84.35
72892;BME280;61032;50.782;6.818;2023-05-09T04:35:21;100547.06;;;15.50;84.03
72892;BME280;61032;50.782;6.818;2023-05-09T04:36:21;100556.53;;;15.48;84.56
72892;BME280;61032;50.782;6.818;2023-05-09T04:37:22;100544.72;;;15.52;84.47
72892;BME280;61032;50.782;6.818;2023-05-09T04:38:22;100543.13;;;15.51;84.82
72892;BME280;61032;50.782;6.818;2023-05-09T04:39:22;100549.13;;;15.53;84.77
72892;BME280;61032;50.782;6.818;2023-05-09T04:40:23;100550.34;;;15.55;84.53
72892;BME280;61032;50.782;6.818;2023-05-09T04:41:23;100548.75;;;15.54;84.33
72892;BME280;61032;50.782;6.818;2023-05-09T04:42:23;100553.41;;;15.50;84.40
72892;BME280;61032;50.782;6.818;2023-05-09T04:43:24;100546.25;;;15.49;84.62
72892;BME280;61032;50.782;6.818;2023-05-09T04:44:27;100542.75;;;15.52;84.41
72892;BME280;61032;50.782;6.818;2023-05-09T04:45:28;100549.91;;;15.53;84.98
72892;BME280;61032;50.782;6.818;2023-05-09T04:46:28;100545.09;;;15.50;84.94
72892;BME280;61032;50.782;6.818;2023-05-09T04:47:28;100548.59;;;15.47;85.09
72892;BME280;61032;50.782;6.818;2023-05-09T04:48:29;100548.31;;;15.52;84.99
72892;BME280;61032;50.782;6.818;2023-05-09T04:49:29;100550.91;;;15.45;85.07
72892;BME280;61032;50.782;6.818;2023-05-09T04:50:30;100550.56;;;15.46;85.42
72892;BME280;61032;50.782;6.818;2023-05-09T04:51:30;100557.69;;;15.47;85.45
72892;BME280;61032;50.782;6.818;2023-05-09T04:52:30;100551.34;;;15.47;85.58
72892;BME280;61032;50.782;6.818;2023-05-09T04:53:31;100551.06;;;15.52;85.02
72892;BME280;61032;50.782;6.818;2023-05-09T04:54:31;100551.53;;;15.54;84.95
72892;BME280;61032;50.782;6.818;2023-05-09T04:55:31;100540.09;;;15.56;85.10
72892;BME280;61032;50.782;6.818;2023-05-09T04:56:32;100548.47;;;15.59;85.19
72892;BME280;61032;50.782;6.818;2023-05-09T04:57:32;100545.28;;;15.57;84.79
72892;BME280;61032;50.782;6.818;2023-05-09T04:58:32;100553.13;;;15.55;84.90
72892;BME280;61032;50.782;6.818;2023-05-09T04:59:37;100545.28;;;15.57;84.85
72892;BME280;61032;50.782;6.818;2023-05-09T05:00:37;100537.38;;;15.59;84.79
72892;BME280;61032;50.782;6.818;2023-05-09T05:01:38;100547.75;;;15.62;84.91
72892;BME280;61032;50.782;6.818;2023-05-09T05:02:38;100550.09;;;15.60;85.03
72892;BME280;61032;50.782;6.818;2023-05-09T05:03:38;100536.66;;;15.62;85.03
72892;BME280;61032;50.782;6.818;2023-05-09T05:04:38;100530.75;;;15.64;84.72
72892;BME280;61032;50.782;6.818;2023-05-09T05:05:39;100531.94;;;15.63;84.59
72892;BME280;61032;50.782;6.818;2023-05-09T05:06:40;100529.69;;;15.68;84.76
72892;BME280;61032;50.782;6.818;2023-05-09T05:07:41;100533.25;;;15.69;84.28
72892;BME280;61032;50.782;6.818;2023-05-09T05:08:41;100534.34;;;15.64;84.61
72892;BME280;61032;50.782;6.818;2023-05-09T05:09:42;100533.53;;;15.64;84.59
72892;BME280;61032;50.782;6.818;2023-05-09T05:10:42;100536.03;;;15.69;84.92
72892;BME280;61032;50.782;6.818;2023-05-09T05:11:43;100536.91;;;15.73;84.81
72892;BME280;61032;50.782;6.818;2023-05-09T05:12:43;100529.53;;;15.80;84.28
72892;BME280;61032;50.782;6.818;2023-05-09T05:13:43;100533.19;;;15.85;84.30
72892;BME280;61032;50.782;6.818;2023-05-09T05:14:44;100530.84;;;15.87;84.26
72892;BME280;61032;50.782;6.818;2023-05-09T05:15:44;100527.34;;;15.90;84.19
72892;BME280;61032;50.782;6.818;2023-05-09T05:16:44;100523.13;;;15.96;83.99
72892;BME280;61032;50.782;6.818;2023-05-09T05:17:45;100524.78;;;16.00;83.19
72892;BME280;61032;50.782;6.818;2023-05-09T05:18:45;100522.00;;;16.00;82.93
72892;BME280;61032;50.782;6.818;2023-05-09T05:19:45;100528.66;;;15.96;83.17
72892;BME280;61032;50.782;6.818;2023-05-09T05:20:45;100526.34;;;15.98;83.25
72892;BME280;61032;50.782;6.818;2023-05-09T05:21:46;100524.66;;;15.93;83.18
72892;BME280;61032;50.782;6.818;2023-05-09T05:22:46;100521.28;;;15.84;83.22
72892;BME280;61032;50.782;6.818;2023-05-09T05:23:46;100524.94;;;15.88;84.28
72892;BME280;61032;50.782;6.818;2023-05-09T05:24:47;100520.63;;;15.91;84.74
72892;BME280;61032;50.782;6.818;2023-05-09T05:25:47;100518.22;;;15.89;83.80
72892;BME280;61032;50.782;6.818;2023-05-09T05:26:47;100519.19;;;15.97;84.11
72892;BME280;61032;50.782;6.818;2023-05-09T05:27:48;100520.84;;;16.01;83.59
72892;BME280;61032;50.782;6.818;2023-05-09T05:28:48;100512.16;;;16.03;83.10